Terminal Aerodrome Forecast
Issued by NWS

Home | Current Version | Previous Version | Text Only | Print | Product List | Glossary On
Versions: 1 2 3 4 5 6 7 8 9 10 11 12 13
000
FTUS43 KGLD 252355
TAFMCK
TAF
KMCK 252355Z 2600/2624 01009KT P6SM VCTS SCT090CB BKN150
      TEMPO 2601/2604 -TSRA BKN030CB
     FM260400 35007KT P6SM OVC130
     FM261200 35010KT P6SM SCT100
     FM261600 02010KT P6SM SCT250=

USA.gov is the U.S. government's official web portal to all federal, state and local government web resources and services.